Date,TemperatureHighF,TemperatureAvgF,TemperatureLowF,DewpointHighF,DewpointAvgF,DewpointLowF,HumidityHigh,HumidityAvg,HumidityLow,PressureMaxIn,PressureMinIn,WindSpeedMaxMPH,WindSpeedAvgMPH,GustSpeedMaxMPH,PrecipitationSumIn
2013-10-1,75,66,51,53,44,32,73,48,22,30.00,29.60,29,6,29,0.00
2013-10-2,74,61,47,53,44,35,87,58,24,30.07,29.88,22,4,22,1.26
2013-10-3,59,58,55,56,54,51,88,87,83,29.96,29.83,21,3,21,0.21
2013-10-4,59,56,55,54,53,51,91,87,84,30.03,29.88,23,7,23,0.20
2013-10-5,60,56,46,56,52,42,90,88,85,29.94,29.74,31,2,31,0.34
2013-10-6,54,47,41,50,44,38,91,89,83,29.88,29.71,20,2,20,0.07
2013-10-7,66,53,44,48,44,40,90,74,40,30.03,29.87,15,1,15,0.01
2013-10-8,76,64,52,48,45,42,73,53,34,30.02,29.86,28,6,28,0.00
2013-10-9,75,66,59,53,50,47,71,57,39,30.06,29.94,20,5,20,0.00
2013-10-10,76,64,53,53,49,45,74,60,42,30.07,29.91,26,4,26,0.00
2013-10-11,73,66,59,59,54,51,85,65,49,29.92,29.65,35,8,35,0.10
2013-10-12,69,52,47,56,44,40,87,75,60,30.20,29.69,34,7,34,0.00
2013-10-13,59,48,37,41,38,33,89,69,38,30.48,30.18,18,1,18,0.00
2013-10-14,56,50,40,46,39,36,88,68,51,30.47,30.02,25,3,25,0.28
2013-10-15,55,50,47,51,47,44,89,88,85,30.07,29.71,26,5,26,0.88
2013-10-16,54,46,39,44,40,36,90,80,54,29.99,29.83,20,3,20,0.01
2013-10-17,58,47,38,45,40,35,89,77,49,29.94,29.80,20,3,20,0.22
2013-10-18,52,44,39,41,35,28,90,72,42,30.01,29.86,29,4,29,0.22
2013-10-19,44,40,35,39,34,-100,91,83,70,29.90,29.73,19,-8,19,0.04
2013-10-20,43,37,32,39,34,30,90,89,83,29.92,29.67,20,2,21,0.15
2013-10-21,39,35,33,34,25,22,86,66,55,30.01,29.91,28,6,28,0.00
2013-10-22,40,34,26,33,28,23,90,80,65,30.09,30.00,11,1,11,0.01
2013-10-23,37,35,34,32,27,21,90,72,57,30.16,30.05,21,3,21,0.01
2013-10-24,43,37,33,32,27,22,78,67,53,30.37,30.16,22,3,22,0.00
2013-10-25,51,38,31,36,31,28,89,75,54,30.37,30.02,23,3,23,0.00
2013-10-28,43,34,32,26,12,-100,77,50,41,30.49,30.42,20,-82,20,0.00
2013-10-29,39,34,32,30,22,-100,72,66,63,30.48,30.29,13,-16,13,0.00
2013-10-30,50,48,44,47,45,40,89,88,85,30.06,29.72,16,1,16,0.09
2013-10-31,50,44,40,47,41,37,90,88,84,29.73,29.42,19,4,19,0.02